Terminal Aerodrome Forecast
Issued by NWS Shreveport, LA

Home | Current Version | Previous Version | Text Only | Print | Product List | Glossary On
Versions: 1 2 3 4 5 6 7 8 9 10 11 12 13 14
000
FTUS44 KSHV 261700 RRA
TAFMLU
TAF
KMLU 261753Z 2618/2718 13006KT P6SM VCSH OVC040
      TEMPO 2619/2622 5SM -RA BR OVC030
     FM262200 13006KT 6SM -RA BR OVC030
      TEMPO 2622/2624 4SM -RA BR OVC025
     FM270100 13006KT P6SM OVC030
     FM270600 14006KT P6SM OVC020
     FM270900 14005KT 6SM BR VCSH SCT007 OVC015
      TEMPO 2709/2712 3SM -SHRA BR OVC007
     FM271200 14005KT 4SM BR VCSH OVC007=

USA.gov is the U.S. government's official web portal to all federal, state and local government web resources and services.